sensor_id;sensor_type;location;lat;lon;timestamp;temperature;humidity
38090;DHT22;23904;52.322;10.232;2023-02-01T00:00:12;5.30;99.90
38090;DHT22;23904;52.322;10.232;2023-02-01T00:02:37;5.40;99.90
38090;DHT22;23904;52.322;10.232;2023-02-01T00:05:07;5.40;99.90
38090;DHT22;23904;52.322;10.232;2023-02-01T00:07:36;5.50;99.90
38090;DHT22;23904;52.322;10.232;2023-02-01T00:10:03;5.50;99.90
38090;DHT22;23904;52.322;10.232;2023-02-01T00:12:30;5.40;99.90
38090;DHT22;23904;52.322;10.232;2023-02-01T00:14:56;5.40;99.90
38090;DHT22;23904;52.322;10.232;2023-02-01T00:17:22;5.40;99.90
38090;DHT22;23904;52.322;10.232;2023-02-01T00:19:47;5.40;99.90
38090;DHT22;23904;52.322;10.232;2023-02-01T00:22:13;5.40;99.90
38090;DHT22;23904;52.322;10.232;2023-02-01T00:24:39;5.40;99.90
38090;DHT22;23904;52.322;10.232;2023-02-01T00:27:04;5.40;99.90
38090;DHT22;23904;52.322;10.232;2023-02-01T00:29:30;5.50;99.90
38090;DHT22;23904;52.322;10.232;2023-02-01T00:31:55;5.40;99.90
38090;DHT22;23904;52.322;10.232;2023-02-01T00:34:21;5.40;99.90
38090;DHT22;23904;52.322;10.232;2023-02-01T00:36:46;5.40;99.90
38090;DHT22;23904;52.322;10.232;2023-02-01T00:39:13;5.30;99.90
38090;DHT22;23904;52.322;10.232;2023-02-01T00:41:38;5.40;99.90
38090;DHT22;23904;52.322;10.232;2023-02-01T00:44:05;5.40;99.90
38090;DHT22;23904;52.322;10.232;2023-02-01T00:46:31;5.40;99.90
38090;DHT22;23904;52.322;10.232;2023-02-01T00:48:56;5.40;99.90
38090;DHT22;23904;52.322;10.232;2023-02-01T00:51:25;5.30;99.90
38090;DHT22;23904;52.322;10.232;2023-02-01T00:53:52;5.30;99.90
38090;DHT22;23904;52.322;10.232;2023-02-01T00:56:18;5.30;99.90
38090;DHT22;23904;52.322;10.232;2023-02-01T00:58:44;5.30;99.90
38090;DHT22;23904;52.322;10.232;2023-02-01T01:01:18;5.30;99.90
38090;DHT22;23904;52.322;10.232;2023-02-01T01:03:47;5.20;99.90
38090;DHT22;23904;52.322;10.232;2023-02-01T01:06:17;5.30;99.90
38090;DHT22;23904;52.322;10.232;2023-02-01T01:08:50;5.20;99.90
38090;DHT22;23904;52.322;10.232;2023-02-01T01:11:26;5.30;99.90
38090;DHT22;23904;52.322;10.232;2023-02-01T01:13:54;5.20;99.90
38090;DHT22;23904;52.322;10.232;2023-02-01T01:16:22;5.20;99.90
38090;DHT22;23904;52.322;10.232;2023-02-01T01:18:48;5.20;99.90
38090;DHT22;23904;52.322;10.232;2023-02-01T01:21:16;5.20;99.90
38090;DHT22;23904;52.322;10.232;2023-02-01T01:23:42;5.20;99.90
38090;DHT22;23904;52.322;10.232;2023-02-01T01:26:17;5.20;99.90
38090;DHT22;23904;52.322;10.232;2023-02-01T01:28:44;5.20;99.90
38090;DHT22;23904;52.322;10.232;2023-02-01T01:31:12;5.10;99.90
38090;DHT22;23904;52.322;10.232;2023-02-01T01:33:38;5.20;99.90
38090;DHT22;23904;52.322;10.232;2023-02-01T01:36:05;5.10;99.90
38090;DHT22;23904;52.322;10.232;2023-02-01T01:38:32;5.10;99.90
38090;DHT22;23904;52.322;10.232;2023-02-01T01:40:59;5.10;99.90
38090;DHT22;23904;52.322;10.232;2023-02-01T01:43:24;5.10;99.90
38090;DHT22;23904;52.322;10.232;2023-02-01T01:45:50;5.20;99.90
38090;DHT22;23904;52.322;10.232;2023-02-01T01:48:27;5.20;99.90
38090;DHT22;23904;52.322;10.232;2023-02-01T01:51:05;5.20;99.90
38090;DHT22;23904;52.322;10.232;2023-02-01T01:53:42;5.20;99.90
38090;DHT22;23904;52.322;10.232;2023-02-01T01:56:11;5.20;99.90
38090;DHT22;23904;52.322;10.232;2023-02-01T01:58:37;5.20;99.90
38090;DHT22;23904;52.322;10.232;2023-02-01T02:01:03;5.20;99.90
38090;DHT22;23904;52.322;10.232;2023-02-01T02:03:41;5.10;99.90
38090;DHT22;23904;52.322;10.232;2023-02-01T02:06:18;5.10;99.90
38090;DHT22;23904;52.322;10.232;2023-02-01T02:08:49;5.10;99.90
38090;DHT22;23904;52.322;10.232;2023-02-01T02:11:16;5.10;99.90
38090;DHT22;23904;52.322;10.232;2023-02-01T02:13:45;5.10;99.90
38090;DHT22;23904;52.322;10.232;2023-02-01T02:19:17;5.10;99.90
38090;DHT22;23904;52.322;10.232;2023-02-01T02:22:18;5.10;99.90
38090;DHT22;23904;52.322;10.232;2023-02-01T02:40:07;5.00;99.90
38090;DHT22;23904;52.322;10.232;2023-02-01T02:43:08;4.90;99.90
38090;DHT22;23904;52.322;10.232;2023-02-01T02:51:52;4.90;99.90
38090;DHT22;23904;52.322;10.232;2023-02-01T02:54:42;4.90;99.90
38090;DHT22;23904;52.322;10.232;2023-02-01T03:00:18;4.90;99.90
38090;DHT22;23904;52.322;10.232;2023-02-01T03:03:06;4.90;99.90
38090;DHT22;23904;52.322;10.232;2023-02-01T03:05:51;4.90;99.90
38090;DHT22;23904;52.322;10.232;2023-02-01T03:08:22;4.90;99.90
38090;DHT22;23904;52.322;10.232;2023-02-01T03:11:00;5.00;99.90
38090;DHT22;23904;52.322;10.232;2023-02-01T03:16:36;5.00;99.90
38090;DHT22;23904;52.322;10.232;2023-02-01T03:19:08;5.00;99.90
38090;DHT22;23904;52.322;10.232;2023-02-01T03:21:50;5.00;99.90
38090;DHT22;23904;52.322;10.232;2023-02-01T03:24:46;5.00;99.90
38090;DHT22;23904;52.322;10.232;2023-02-01T03:27:34;5.00;99.90
38090;DHT22;23904;52.322;10.232;2023-02-01T03:33:19;5.00;99.90
38090;DHT22;23904;52.322;10.232;2023-02-01T03:39:07;5.00;99.90
38090;DHT22;23904;52.322;10.232;2023-02-01T03:41:42;5.00;99.90
38090;DHT22;23904;52.322;10.232;2023-02-01T03:44:32;5.00;99.90
38090;DHT22;23904;52.322;10.232;2023-02-01T03:47:05;5.00;99.90
38090;DHT22;23904;52.322;10.232;2023-02-01T03:49:40;5.00;99.90
38090;DHT22;23904;52.322;10.232;2023-02-01T03:52:20;5.10;99.90
38090;DHT22;23904;52.322;10.232;2023-02-01T03:54:49;5.10;99.90
38090;DHT22;23904;52.322;10.232;2023-02-01T03:57:20;5.10;99.90
38090;DHT22;23904;52.322;10.232;2023-02-01T03:59:49;5.10;99.90
38090;DHT22;23904;52.322;10.232;2023-02-01T04:02:15;5.10;99.90
38090;DHT22;23904;52.322;10.232;2023-02-01T04:04:41;5.20;99.90
38090;DHT22;23904;52.322;10.232;2023-02-01T04:07:06;5.10;99.90
38090;DHT22;23904;52.322;10.232;2023-02-01T04:09:32;5.10;99.90
38090;DHT22;23904;52.322;10.232;2023-02-01T04:11:57;5.10;99.90
38090;DHT22;23904;52.322;10.232;2023-02-01T04:14:24;5.10;99.90
38090;DHT22;23904;52.322;10.232;2023-02-01T04:16:50;5.10;99.90
38090;DHT22;23904;52.322;10.232;2023-02-01T04:19:15;5.10;99.90
38090;DHT22;23904;52.322;10.232;2023-02-01T04:21:41;5.10;99.90
38090;DHT22;23904;52.322;10.232;2023-02-01T04:24:07;5.10;99.90
38090;DHT22;23904;52.322;10.232;2023-02-01T04:26:33;5.10;99.90
38090;DHT22;23904;52.322;10.232;2023-02-01T04:28:59;5.20;99.90
38090;DHT22;23904;52.322;10.232;2023-02-01T04:31:25;5.20;99.90
38090;DHT22;23904;52.322;10.232;2023-02-01T04:33:54;5.30;99.90
38090;DHT22;23904;52.322;10.232;2023-02-01T04:36:22;5.30;99.90
38090;DHT22;23904;52.322;10.232;2023-02-01T04:38:50;5.30;99.90
38090;DHT22;23904;52.322;10.232;2023-02-01T04:41:15;5.20;99.90
38090;DHT22;23904;52.322;10.232;2023-02-01T04:43:45;5.10;99.90
38090;DHT22;23904;52.322;10.232;2023-02-01T04:46:11;5.10;99.90
38090;DHT22;23904;52.322;10.232;2023-02-01T04:48:37;5.20;99.90
38090;DHT22;23904;52.322;10.232;2023-02-01T04:51:03;5.20;99.90
38090;DHT22;23904;52.322;10.232;2023-02-01T04:53:29;5.20;99.90
38090;DHT22;23904;52.322;10.232;2023-02-01T04:55:55;5.20;99.90
38090;DHT22;23904;52.322;10.232;2023-02-01T04:58:21;5.20;99.90
38090;DHT22;23904;52.322;10.232;2023-02-01T05:00:48;5.10;99.90
38090;DHT22;23904;52.322;10.232;2023-02-01T05:03:13;5.10;99.90
38090;DHT22;23904;52.322;10.232;2023-02-01T05:05:39;5.20;99.90
38090;DHT22;23904;52.322;10.232;2023-02-01T05:08:04;5.20;99.90
38090;DHT22;23904;52.322;10.232;2023-02-01T05:10:30;5.10;99.90
38090;DHT22;23904;52.322;10.232;2023-02-01T05:12:56;5.20;99.90
38090;DHT22;23904;52.322;10.232;2023-02-01T05:15:40;5.20;99.90
38090;DHT22;23904;52.322;10.232;2023-02-01T05:18:06;5.10;99.90
38090;DHT22;23904;52.322;10.232;2023-02-01T05:20:31;5.20;99.90
38090;DHT22;23904;52.322;10.232;2023-02-01T05:22:57;5.10;99.90
38090;DHT22;23904;52.322;10.232;2023-02-01T05:25:22;5.10;99.90
38090;DHT22;23904;52.322;10.232;2023-02-01T05:27:48;5.00;99.90
38090;DHT22;23904;52.322;10.232;2023-02-01T05:30:14;4.90;99.90
38090;DHT22;23904;52.322;10.232;2023-02-01T05:32:40;4.80;99.90
38090;DHT22;23904;52.322;10.232;2023-02-01T05:35:06;4.80;99.90
38090;DHT22;23904;52.322;10.232;2023-02-01T05:37:32;4.70;99.90
38090;DHT22;23904;52.322;10.232;2023-02-01T05:39:57;4.70;99.90
38090;DHT22;23904;52.322;10.232;2023-02-01T05:42:23;4.70;99.90
38090;DHT22;23904;52.322;10.232;2023-02-01T05:44:48;4.70;99.90
38090;DHT22;23904;52.322;10.232;2023-02-01T05:47:14;4.60;99.90
38090;DHT22;23904;52.322;10.232;2023-02-01T05:49:40;4.60;99.90
38090;DHT22;23904;52.322;10.232;2023-02-01T05:52:05;4.60;99.90
38090;DHT22;23904;52.322;10.232;2023-02-01T05:54:31;4.60;99.90
38090;DHT22;23904;52.322;10.232;2023-02-01T05:56:56;4.50;99.90
38090;DHT22;23904;52.322;10.232;2023-02-01T05:59:22;4.60;99.90
38090;DHT22;23904;52.322;10.232;2023-02-01T06:01:48;4.60;99.90
38090;DHT22;23904;52.322;10.232;2023-02-01T06:04:13;4.60;99.90
38090;DHT22;23904;52.322;10.232;2023-02-01T06:06:39;4.60;99.90
38090;DHT22;23904;52.322;10.232;2023-02-01T06:09:05;4.60;99.90
38090;DHT22;23904;52.322;10.232;2023-02-01T06:11:31;4.60;99.90
38090;DHT22;23904;52.322;10.232;2023-02-01T06:13:56;4.60;99.90
38090;DHT22;23904;52.322;10.232;2023-02-01T06:16:22;4.60;99.90
38090;DHT22;23904;52.322;10.232;2023-02-01T06:18:48;4.60;99.90
38090;DHT22;23904;52.322;10.232;2023-02-01T06:21:14;4.70;99.90
38090;DHT22;23904;52.322;10.232;2023-02-01T06:23:52;4.70;99.90
38090;DHT22;23904;52.322;10.232;2023-02-01T06:26:19;4.70;99.90
38090;DHT22;23904;52.322;10.232;2023-02-01T06:28:45;4.70;99.90
38090;DHT22;23904;52.322;10.232;2023-02-01T06:31:11;4.80;99.90
38090;DHT22;23904;52.322;10.232;2023-02-01T06:33:37;4.80;99.90
38090;DHT22;23904;52.322;10.232;2023-02-01T06:36:05;4.90;99.90
38090;DHT22;23904;52.322;10.232;2023-02-01T06:38:33;4.90;99.90
38090;DHT22;23904;52.322;10.232;2023-02-01T06:41:02;4.90;99.90
38090;DHT22;23904;52.322;10.232;2023-02-01T06:43:29;4.90;99.90
38090;DHT22;23904;52.322;10.232;2023-02-01T06:46:00;4.90;99.90
38090;DHT22;23904;52.322;10.232;2023-02-01T06:48:26;4.90;99.90
38090;DHT22;23904;52.322;10.232;2023-02-01T06:50:52;4.90;99.90
38090;DHT22;23904;52.322;10.232;2023-02-01T06:53:17;4.90;99.90
38090;DHT22;23904;52.322;10.232;2023-02-01T06:55:55;4.90;99.90
38090;DHT22;23904;52.322;10.232;2023-02-01T06:58:22;4.90;99.90
38090;DHT22;23904;52.322;10.232;2023-02-01T07:00:48;4.90;99.90
38090;DHT22;23904;52.322;10.232;2023-02-01T07:03:13;4.90;99.90
38090;DHT22;23904;52.322;10.232;2023-02-01T07:05:39;4.90;99.90
38090;DHT22;23904;52.322;10.232;2023-02-01T07:08:06;4.90;99.90
38090;DHT22;23904;52.322;10.232;2023-02-01T07:10:31;4.90;99.90
38090;DHT22;23904;52.322;10.232;2023-02-01T07:12:57;4.90;99.90
38090;DHT22;23904;52.322;10.232;2023-02-01T07:15:23;5.00;99.90
38090;DHT22;23904;52.322;10.232;2023-02-01T07:17:49;5.00;99.90
38090;DHT22;23904;52.322;10.232;2023-02-01T07:20:15;5.00;99.90
38090;DHT22;23904;52.322;10.232;2023-02-01T07:22:41;5.00;99.90
38090;DHT22;23904;52.322;10.232;2023-02-01T07:25:07;4.90;99.90
38090;DHT22;23904;52.322;10.232;2023-02-01T07:27:34;4.90;99.90
38090;DHT22;23904;52.322;10.232;2023-02-01T07:30:00;4.90;99.90
38090;DHT22;23904;52.322;10.232;2023-02-01T07:32:28;5.00;99.90
38090;DHT22;23904;52.322;10.232;2023-02-01T07:34:54;5.00;99.90
38090;DHT22;23904;52.322;10.232;2023-02-01T07:37:19;5.00;99.90
38090;DHT22;23904;52.322;10.232;2023-02-01T07:39:45;5.00;99.90
38090;DHT22;23904;52.322;10.232;2023-02-01T07:42:11;5.00;99.90
38090;DHT22;23904;52.322;10.232;2023-02-01T07:44:36;5.10;99.90
38090;DHT22;23904;52.322;10.232;2023-02-01T07:47:02;5.10;99.90
38090;DHT22;23904;52.322;10.232;2023-02-01T07:49:27;5.20;99.90
38090;DHT22;23904;52.322;10.232;2023-02-01T07:51:53;5.10;99.90
38090;DHT22;23904;52.322;10.232;2023-02-01T07:54:19;5.20;99.90
38090;DHT22;23904;52.322;10.232;2023-02-01T07:56:44;5.20;99.90
38090;DHT22;23904;52.322;10.232;2023-02-01T07:59:10;5.20;99.90
38090;DHT22;23904;52.322;10.232;2023-02-01T08:01:37;5.20;99.90
38090;DHT22;23904;52.322;10.232;2023-02-01T08:04:03;5.20;99.90
38090;DHT22;23904;52.322;10.232;2023-02-01T08:06:32;5.20;99.90
38090;DHT22;23904;52.322;10.232;2023-02-01T08:08:59;5.10;99.90
38090;DHT22;23904;52.322;10.232;2023-02-01T08:11:25;5.20;99.90
38090;DHT22;23904;52.322;10.232;2023-02-01T08:13:51;5.20;99.90
38090;DHT22;23904;52.322;10.232;2023-02-01T08:16:19;5.10;99.90
38090;DHT22;23904;52.322;10.232;2023-02-01T08:18:45;5.10;99.90
38090;DHT22;23904;52.322;10.232;2023-02-01T08:21:15;5.20;99.90
38090;DHT22;23904;52.322;10.232;2023-02-01T08:23:43;5.20;99.90
38090;DHT22;23904;52.322;10.232;2023-02-01T08:28:52;5.30;99.90
38090;DHT22;23904;52.322;10.232;2023-02-01T08:31:20;5.30;99.90
38090;DHT22;23904;52.322;10.232;2023-02-01T08:33:49;5.40;99.90
38090;DHT22;23904;52.322;10.232;2023-02-01T08:36:17;5.40;99.90
38090;DHT22;23904;52.322;10.232;2023-02-01T08:38:43;5.50;99.90
38090;DHT22;23904;52.322;10.232;2023-02-01T08:41:11;5.50;99.90
38090;DHT22;23904;52.322;10.232;2023-02-01T08:43:41;5.50;99.90
38090;DHT22;23904;52.322;10.232;2023-02-01T08:46:08;5.40;99.90
38090;DHT22;23904;52.322;10.232;2023-02-01T08:48:35;5.40;99.90
38090;DHT22;23904;52.322;10.232;2023-02-01T08:51:02;5.40;99.90
38090;DHT22;23904;52.322;10.232;2023-02-01T08:53:29;5.40;99.90
38090;DHT22;23904;52.322;10.232;2023-02-01T08:55:55;5.40;99.90
38090;DHT22;23904;52.322;10.232;2023-02-01T08:58:20;5.50;99.90
38090;DHT22;23904;52.322;10.232;2023-02-01T09:00:47;5.50;99.90
38090;DHT22;23904;52.322;10.232;2023-02-01T09:03:14;5.50;99.90
38090;DHT22;23904;52.322;10.232;2023-02-01T09:05:40;5.60;99.90
38090;DHT22;23904;52.322;10.232;2023-02-01T09:08:06;5.60;99.90
38090;DHT22;23904;52.322;10.232;2023-02-01T09:10:32;5.60;99.90
38090;DHT22;23904;52.322;10.232;2023-02-01T09:12:58;5.60;99.90
38090;DHT22;23904;52.322;10.232;2023-02-01T09:15:24;5.80;99.90
38090;DHT22;23904;52.322;10.232;2023-02-01T09:17:50;5.80;99.90
38090;DHT22;23904;52.322;10.232;2023-02-01T09:20:15;5.90;99.90
38090;DHT22;23904;52.322;10.232;2023-02-01T09:22:41;6.00;99.90
38090;DHT22;23904;52.322;10.232;2023-02-01T09:25:07;6.10;99.90
38090;DHT22;23904;52.322;10.232;2023-02-01T09:27:34;6.20;99.90
38090;DHT22;23904;52.322;10.232;2023-02-01T09:30:00;6.20;99.90
38090;DHT22;23904;52.322;10.232;2023-02-01T09:32:25;6.30;99.90
38090;DHT22;23904;52.322;10.232;2023-02-01T09:34:52;6.40;99.90
38090;DHT22;23904;52.322;10.232;2023-02-01T09:37:18;6.60;99.90
38090;DHT22;23904;52.322;10.232;2023-02-01T09:39:44;7.20;99.90
38090;DHT22;23904;52.322;10.232;2023-02-01T09:48:16;6.90;99.90
38090;DHT22;23904;52.322;10.232;2023-02-01T09:50:52;7.20;99.90
38090;DHT22;23904;52.322;10.232;2023-02-01T09:53:35;7.30;99.90
38090;DHT22;23904;52.322;10.232;2023-02-01T09:56:18;7.40;99.90
38090;DHT22;23904;52.322;10.232;2023-02-01T09:58:55;7.30;99.90
38090;DHT22;23904;52.322;10.232;2023-02-01T10:01:27;7.20;99.90
38090;DHT22;23904;52.322;10.232;2023-02-01T10:04:13;7.20;99.90
38090;DHT22;23904;52.322;10.232;2023-02-01T10:06:49;7.00;99.90
38090;DHT22;23904;52.322;10.232;2023-02-01T10:18:00;6.70;99.90
38090;DHT22;23904;52.322;10.232;2023-02-01T10:20:51;6.80;99.90
38090;DHT22;23904;52.322;10.232;2023-02-01T10:23:51;6.80;99.90
38090;DHT22;23904;52.322;10.232;2023-02-01T10:26:26;6.90;99.90
38090;DHT22;23904;52.322;10.232;2023-02-01T10:29:01;7.00;99.90
38090;DHT22;23904;52.322;10.232;2023-02-01T10:31:35;7.10;99.90
38090;DHT22;23904;52.322;10.232;2023-02-01T10:37:28;7.50;99.90
38090;DHT22;23904;52.322;10.232;2023-02-01T10:39:59;7.60;99.90
38090;DHT22;23904;52.322;10.232;2023-02-01T10:42:40;7.80;99.90
38090;DHT22;23904;52.322;10.232;2023-02-01T10:45:11;7.50;99.90
38090;DHT22;23904;52.322;10.232;2023-02-01T10:47:40;7.50;99.90
38090;DHT22;23904;52.322;10.232;2023-02-01T10:50:15;7.40;99.90
38090;DHT22;23904;52.322;10.232;2023-02-01T10:53:01;7.40;99.90
38090;DHT22;23904;52.322;10.232;2023-02-01T10:55:37;7.30;99.90
38090;DHT22;23904;52.322;10.232;2023-02-01T10:58:28;7.30;99.90
38090;DHT22;23904;52.322;10.232;2023-02-01T11:01:01;7.20;99.90
38090;DHT22;23904;52.322;10.232;2023-02-01T11:06:33;7.10;99.90
38090;DHT22;23904;52.322;10.232;2023-02-01T11:09:15;7.00;99.90
38090;DHT22;23904;52.322;10.232;2023-02-01T11:14:17;7.00;99.90
38090;DHT22;23904;52.322;10.232;2023-02-01T11:16:49;7.00;99.90
38090;DHT22;23904;52.322;10.232;2023-02-01T11:19:16;7.00;99.90
38090;DHT22;23904;52.322;10.232;2023-02-01T11:21:43;7.00;99.90
38090;DHT22;23904;52.322;10.232;2023-02-01T11:27:00;7.10;99.90
38090;DHT22;23904;52.322;10.232;2023-02-01T11:29:36;7.00;99.90
38090;DHT22;23904;52.322;10.232;2023-02-01T11:32:04;7.10;99.90
38090;DHT22;23904;52.322;10.232;2023-02-01T11:34:39;7.10;99.90
38090;DHT22;23904;52.322;10.232;2023-02-01T11:37:21;7.10;99.90
38090;DHT22;23904;52.322;10.232;2023-02-01T11:39:57;7.00;99.90
38090;DHT22;23904;52.322;10.232;2023-02-01T11:42:25;7.00;99.90
38090;DHT22;23904;52.322;10.232;2023-02-01T11:45:16;7.00;99.90
38090;DHT22;23904;52.322;10.232;2023-02-01T11:47:42;6.90;99.90
38090;DHT22;23904;52.322;10.232;2023-02-01T11:50:17;6.90;99.90
38090;DHT22;23904;52.322;10.232;2023-02-01T11:59:22;7.00;99.90
38090;DHT22;23904;52.322;10.232;2023-02-01T12:02:30;7.00;99.90
38090;DHT22;23904;52.322;10.232;2023-02-01T12:11:18;7.60;99.90
38090;DHT22;23904;52.322;10.232;2023-02-01T12:20:13;7.60;99.90
38090;DHT22;23904;52.322;10.232;2023-02-01T12:23:25;7.60;99.90
38090;DHT22;23904;52.322;10.232;2023-02-01T12:26:27;7.60;99.90
38090;DHT22;23904;52.322;10.232;2023-02-01T12:40:53;7.40;99.90
38090;DHT22;23904;52.322;10.232;2023-02-01T12:46:50;7.10;99.90
38090;DHT22;23904;52.322;10.232;2023-02-01T12:49:34;6.90;99.90
38090;DHT22;23904;52.322;10.232;2023-02-01T12:52:41;6.80;99.90
38090;DHT22;23904;52.322;10.232;2023-02-01T12:55:24;6.70;99.90
38090;DHT22;23904;52.322;10.232;2023-02-01T12:58:18;6.60;99.90
38090;DHT22;23904;52.322;10.232;2023-02-01T13:00:58;6.50;99.90
38090;DHT22;23904;52.322;10.232;2023-02-01T13:03:39;6.40;99.90
38090;DHT22;23904;52.322;10.232;2023-02-01T13:06:29;6.20;99.90
38090;DHT22;23904;52.322;10.232;2023-02-01T13:11:37;6.00;99.90
38090;DHT22;23904;52.322;10.232;2023-02-01T13:14:19;6.10;99.90
38090;DHT22;23904;52.322;10.232;2023-02-01T13:16:54;6.00;99.90
38090;DHT22;23904;52.322;10.232;2023-02-01T13:22:25;5.90;99.90
38090;DHT22;23904;52.322;10.232;2023-02-01T13:24:57;5.90;99.90
38090;DHT22;23904;52.322;10.232;2023-02-01T13:27:29;5.90;99.90
38090;DHT22;23904;52.322;10.232;2023-02-01T13:30:10;5.80;99.90
38090;DHT22;23904;52.322;10.232;2023-02-01T13:33:17;5.80;99.90
38090;DHT22;23904;52.322;10.232;2023-02-01T13:42:04;5.60;99.90
38090;DHT22;23904;52.322;10.232;2023-02-01T13:44:42;5.50;99.90
38090;DHT22;23904;52.322;10.232;2023-02-01T13:47:21;5.30;99.90
38090;DHT22;23904;52.322;10.232;2023-02-01T13:49:51;5.20;99.90
38090;DHT22;23904;52.322;10.232;2023-02-01T13:52:27;5.10;99.90
38090;DHT22;23904;52.322;10.232;2023-02-01T13:58:03;4.40;99.90
38090;DHT22;23904;52.322;10.232;2023-02-01T14:00:33;4.10;99.90
38090;DHT22;23904;52.322;10.232;2023-02-01T14:21:29;3.60;99.90
38090;DHT22;23904;52.322;10.232;2023-02-01T14:24:25;3.50;99.90
38090;DHT22;23904;52.322;10.232;2023-02-01T14:27:24;3.50;99.90
38090;DHT22;23904;52.322;10.232;2023-02-01T14:30:00;3.40;99.90
38090;DHT22;23904;52.322;10.232;2023-02-01T14:32:33;3.50;99.90
38090;DHT22;23904;52.322;10.232;2023-02-01T14:35:02;3.50;99.90
38090;DHT22;23904;52.322;10.232;2023-02-01T14:37:33;3.40;99.90
38090;DHT22;23904;52.322;10.232;2023-02-01T14:40:04;3.40;99.90
38090;DHT22;23904;52.322;10.232;2023-02-01T14:47:44;3.30;99.90
38090;DHT22;23904;52.322;10.232;2023-02-01T15:04:10;3.30;99.90
38090;DHT22;23904;52.322;10.232;2023-02-01T15:06:49;3.30;99.90
38090;DHT22;23904;52.322;10.232;2023-02-01T15:09:33;3.40;99.90
38090;DHT22;23904;52.322;10.232;2023-02-01T15:14:42;3.30;99.90
38090;DHT22;23904;52.322;10.232;2023-02-01T15:17:21;3.30;99.90
38090;DHT22;23904;52.322;10.232;2023-02-01T15:19:57;3.20;99.90
38090;DHT22;23904;52.322;10.232;2023-02-01T15:22:25;3.20;99.90
38090;DHT22;23904;52.322;10.232;2023-02-01T15:24:56;3.10;99.90
38090;DHT22;23904;52.322;10.232;2023-02-01T15:27:23;3.10;99.90
38090;DHT22;23904;52.322;10.232;2023-02-01T15:29:49;3.10;99.90
38090;DHT22;23904;52.322;10.232;2023-02-01T15:32:32;3.10;99.90
38090;DHT22;23904;52.322;10.232;2023-02-01T15:35:00;3.20;99.90
38090;DHT22;23904;52.322;10.232;2023-02-01T15:37:27;3.10;99.90
38090;DHT22;23904;52.322;10.232;2023-02-01T15:42:53;3.10;99.90
38090;DHT22;23904;52.322;10.232;2023-02-01T15:45:27;3.10;99.90
38090;DHT22;23904;52.322;10.232;2023-02-01T15:47:57;3.20;99.90
38090;DHT22;23904;52.322;10.232;2023-02-01T15:50:23;3.20;99.90
38090;DHT22;23904;52.322;10.232;2023-02-01T15:52:53;3.20;99.90
38090;DHT22;23904;52.322;10.232;2023-02-01T15:55:26;3.10;99.90
38090;DHT22;23904;52.322;10.232;2023-02-01T15:57:59;3.10;99.90
38090;DHT22;23904;52.322;10.232;2023-02-01T16:00:30;3.20;99.90
38090;DHT22;23904;52.322;10.232;2023-02-01T16:03:23;3.20;99.90
38090;DHT22;23904;52.322;10.232;2023-02-01T16:05:58;3.30;99.90
38090;DHT22;23904;52.322;10.232;2023-02-01T16:08:28;3.30;99.90
38090;DHT22;23904;52.322;10.232;2023-02-01T16:11:22;3.30;99.90
38090;DHT22;23904;52.322;10.232;2023-02-01T16:14:00;3.30;99.90
38090;DHT22;23904;52.322;10.232;2023-02-01T16:16:27;3.20;99.90
38090;DHT22;23904;52.322;10.232;2023-02-01T16:18:53;3.30;99.90
38090;DHT22;23904;52.322;10.232;2023-02-01T16:21:19;3.40;99.90
38090;DHT22;23904;52.322;10.232;2023-02-01T16:23:49;3.40;99.90
38090;DHT22;23904;52.322;10.232;2023-02-01T16:26:16;3.40;99.90
38090;DHT22;23904;52.322;10.232;2023-02-01T16:28:42;3.40;99.90
38090;DHT22;23904;52.322;10.232;2023-02-01T16:31:15;3.40;99.90
38090;DHT22;23904;52.322;10.232;2023-02-01T16:33:50;3.50;99.90
38090;DHT22;23904;52.322;10.232;2023-02-01T16:36:17;3.50;99.90
38090;DHT22;23904;52.322;10.232;2023-02-01T16:38:44;3.50;99.90
38090;DHT22;23904;52.322;10.232;2023-02-01T16:41:17;3.60;99.90
38090;DHT22;23904;52.322;10.232;2023-02-01T16:43:43;3.60;99.90
38090;DHT22;23904;52.322;10.232;2023-02-01T16:46:15;3.60;99.90
38090;DHT22;23904;52.322;10.232;2023-02-01T16:48:48;3.60;99.90
38090;DHT22;23904;52.322;10.232;2023-02-01T16:51:17;3.70;99.90
38090;DHT22;23904;52.322;10.232;2023-02-01T16:53:44;3.70;99.90
38090;DHT22;23904;52.322;10.232;2023-02-01T16:56:18;3.70;99.90
38090;DHT22;23904;52.322;10.232;2023-02-01T16:58:48;3.70;99.90
38090;DHT22;23904;52.322;10.232;2023-02-01T17:01:16;3.70;99.90
38090;DHT22;23904;52.322;10.232;2023-02-01T17:03:44;3.80;99.90
38090;DHT22;23904;52.322;10.232;2023-02-01T17:06:16;3.80;99.90
38090;DHT22;23904;52.322;10.232;2023-02-01T17:08:46;3.70;99.90
38090;DHT22;23904;52.322;10.232;2023-02-01T17:11:14;3.70;99.90
38090;DHT22;23904;52.322;10.232;2023-02-01T17:13:40;3.70;99.90
38090;DHT22;23904;52.322;10.232;2023-02-01T17:16:22;3.70;99.90
38090;DHT22;23904;52.322;10.232;2023-02-01T17:19:06;3.80;99.90
38090;DHT22;23904;52.322;10.232;2023-02-01T17:21:39;3.80;99.90
38090;DHT22;23904;52.322;10.232;2023-02-01T17:24:09;3.80;99.90
38090;DHT22;23904;52.322;10.232;2023-02-01T17:26:35;3.90;99.90
38090;DHT22;23904;52.322;10.232;2023-02-01T17:29:01;4.00;99.90
38090;DHT22;23904;52.322;10.232;2023-02-01T17:31:27;4.10;99.90
38090;DHT22;23904;52.322;10.232;2023-02-01T17:33:53;4.20;99.90
38090;DHT22;23904;52.322;10.232;2023-02-01T17:36:18;4.30;99.90
38090;DHT22;23904;52.322;10.232;2023-02-01T17:38:44;4.40;99.90
38090;DHT22;23904;52.322;10.232;2023-02-01T17:41:11;4.40;99.90
38090;DHT22;23904;52.322;10.232;2023-02-01T17:43:38;4.40;99.90
38090;DHT22;23904;52.322;10.232;2023-02-01T17:46:15;4.50;99.90
38090;DHT22;23904;52.322;10.232;2023-02-01T17:48:43;4.40;99.90
38090;DHT22;23904;52.322;10.232;2023-02-01T17:53:43;4.40;99.90
38090;DHT22;23904;52.322;10.232;2023-02-01T17:56:20;4.30;99.90
38090;DHT22;23904;52.322;10.232;2023-02-01T17:58:47;4.20;99.90
38090;DHT22;23904;52.322;10.232;2023-02-01T18:01:21;4.10;99.90
38090;DHT22;23904;52.322;10.232;2023-02-01T18:03:48;4.00;99.90
38090;DHT22;23904;52.322;10.232;2023-02-01T18:06:17;4.00;99.90
38090;DHT22;23904;52.322;10.232;2023-02-01T18:08:44;3.90;99.90
38090;DHT22;23904;52.322;10.232;2023-02-01T18:11:21;3.80;99.90
38090;DHT22;23904;52.322;10.232;2023-02-01T18:13:49;3.70;99.90
38090;DHT22;23904;52.322;10.232;2023-02-01T18:16:21;3.60;99.90
38090;DHT22;23904;52.322;10.232;2023-02-01T18:18:48;3.60;99.90
38090;DHT22;23904;52.322;10.232;2023-02-01T18:21:17;3.60;99.90
38090;DHT22;23904;52.322;10.232;2023-02-01T18:23:44;3.70;99.90
38090;DHT22;23904;52.322;10.232;2023-02-01T18:26:11;3.70;99.90
38090;DHT22;23904;52.322;10.232;2023-02-01T18:28:38;3.70;99.90
38090;DHT22;23904;52.322;10.232;2023-02-01T18:31:04;3.80;99.90
38090;DHT22;23904;52.322;10.232;2023-02-01T18:33:31;3.80;99.90